createdAt,value
2022-09-25T00:01:35.607Z,7.60
2022-09-25T00:04:22.258Z,8.60
2022-09-25T00:07:08.766Z,9.00
2022-09-25T00:09:55.365Z,9.73
2022-09-25T00:12:42.260Z,9.67
2022-09-25T00:15:28.573Z,7.60
2022-09-25T00:18:15.944Z,7.60
2022-09-25T00:21:02.226Z,10.73
2022-09-25T00:23:48.793Z,9.47
2022-09-25T00:26:37.883Z,9.13
2022-09-25T00:29:24.045Z,8.70
2022-09-25T00:32:11.982Z,9.90
2022-09-25T00:34:58.213Z,7.37
2022-09-25T00:37:44.762Z,9.17
2022-09-25T00:40:31.176Z,10.17
2022-09-25T00:43:34.365Z,9.20
2022-09-25T00:46:44.460Z,8.20
2022-09-25T00:49:30.728Z,11.97
2022-09-25T00:52:17.350Z,12.63
2022-09-25T00:55:07.541Z,10.47
2022-09-25T00:57:56.570Z,9.77
2022-09-25T01:00:43.971Z,12.47
2022-09-25T01:03:30.497Z,11.30
2022-09-25T01:06:17.951Z,13.07
2022-09-25T01:09:04.591Z,8.87
2022-09-25T01:11:51.207Z,9.33
2022-09-25T01:14:39.343Z,11.40
2022-09-25T01:17:33.166Z,8.80
2022-09-25T01:20:38.187Z,10.67
2022-09-25T01:23:36.216Z,9.33
2022-09-25T01:26:52.665Z,8.97
2022-09-25T01:30:00.993Z,8.73
2022-09-25T01:32:56.620Z,13.00
2022-09-25T01:35:49.541Z,11.07
2022-09-25T01:38:45.260Z,10.03
2022-09-25T01:41:38.472Z,12.53
2022-09-25T01:44:35.015Z,8.47
2022-09-25T01:47:28.504Z,10.47
2022-09-25T01:50:24.082Z,14.10
2022-09-25T01:53:16.376Z,10.10
2022-09-25T01:56:08.729Z,10.70
2022-09-25T01:58:59.947Z,10.50
2022-09-25T02:01:47.592Z,9.60
2022-09-25T02:04:54.132Z,10.60
2022-09-25T02:07:47.420Z,12.00
2022-09-25T02:10:44.971Z,10.27
2022-09-25T02:13:41.471Z,12.70
2022-09-25T02:16:34.390Z,10.40
2022-09-25T02:19:40.024Z,13.87
2022-09-25T02:22:35.878Z,11.10
2022-09-25T02:25:35.929Z,11.37
2022-09-25T02:28:23.545Z,9.60
2022-09-25T02:31:12.876Z,11.47
2022-09-25T02:33:59.650Z,11.83
2022-09-25T02:36:45.974Z,11.00
2022-09-25T02:39:32.336Z,11.87
2022-09-25T02:42:43.101Z,9.23
2022-09-25T02:45:53.259Z,10.23
2022-09-25T02:49:02.362Z,9.37
2022-09-25T02:52:01.120Z,10.50
2022-09-25T02:55:01.295Z,10.43
2022-09-25T02:58:01.194Z,11.63
2022-09-25T03:00:50.404Z,13.33
2022-09-25T03:03:39.089Z,10.23
2022-09-25T03:06:26.458Z,9.80
2022-09-25T03:09:15.493Z,9.90
2022-09-25T03:12:03.415Z,10.37
2022-09-25T03:14:50.590Z,9.33
2022-09-25T03:17:39.640Z,11.77
2022-09-25T03:20:25.727Z,12.03
2022-09-25T03:23:12.205Z,9.40
2022-09-25T03:25:59.274Z,12.07
2022-09-25T03:28:47.240Z,13.97
2022-09-25T03:31:34.162Z,10.97
2022-09-25T03:34:21.161Z,10.83
2022-09-25T03:37:07.673Z,11.90
2022-09-25T03:39:53.944Z,12.60
2022-09-25T03:42:40.203Z,13.10
2022-09-25T03:45:26.410Z,13.13
2022-09-25T03:48:13.029Z,12.37
2022-09-25T03:51:00.740Z,11.97
2022-09-25T03:53:48.811Z,13.30
2022-09-25T03:56:35.351Z,11.83
2022-09-25T03:59:21.679Z,14.07
2022-09-25T04:02:08.875Z,12.57
2022-09-25T04:04:56.077Z,10.03
2022-09-25T04:07:42.651Z,13.07
2022-09-25T04:10:29.022Z,12.23
2022-09-25T04:13:16.988Z,13.30
2022-09-25T04:16:05.944Z,12.37
2022-09-25T04:18:52.547Z,13.30
2022-09-25T04:21:38.831Z,11.47
2022-09-25T04:24:43.598Z,13.63
2022-09-25T04:27:29.943Z,12.80
2022-09-25T04:30:16.366Z,13.80
2022-09-25T04:33:21.189Z,12.27
2022-09-25T04:36:07.755Z,12.40
2022-09-25T04:38:54.198Z,10.27
2022-09-25T04:41:40.395Z,11.70
2022-09-25T04:44:27.635Z,12.40
2022-09-25T04:47:13.779Z,10.93
2022-09-25T04:50:00.001Z,29.80
2022-09-25T04:52:47.018Z,11.20
2022-09-25T04:55:33.172Z,13.23
2022-09-25T04:58:19.396Z,14.40
2022-09-25T05:01:09.378Z,12.50
2022-09-25T05:03:55.943Z,11.40
2022-09-25T05:06:42.908Z,13.40
2022-09-25T05:09:30.053Z,11.60
2022-09-25T05:12:16.803Z,12.53
2022-09-25T05:15:03.118Z,13.23
2022-09-25T05:17:49.908Z,11.33
2022-09-25T05:20:36.704Z,11.77
2022-09-25T05:23:23.780Z,12.83
2022-09-25T05:26:10.946Z,13.90
2022-09-25T05:28:57.695Z,12.67
2022-09-25T05:31:46.746Z,13.63
2022-09-25T05:34:33.041Z,12.50
2022-09-25T05:37:20.099Z,14.57
2022-09-25T05:40:07.403Z,26.93
2022-09-25T05:42:55.347Z,26.67
2022-09-25T05:45:42.379Z,22.53
2022-09-25T05:48:28.967Z,19.10
2022-09-25T05:51:15.558Z,14.43
2022-09-25T05:54:01.880Z,16.00
2022-09-25T05:56:48.575Z,16.97
2022-09-25T05:59:35.287Z,16.10
2022-09-25T06:02:21.787Z,14.70
2022-09-25T06:05:09.072Z,12.10
2022-09-25T06:07:56.146Z,11.90
2022-09-25T06:10:42.759Z,11.87
2022-09-25T06:13:33.541Z,15.83
2022-09-25T06:16:19.798Z,11.40
2022-09-25T06:19:06.429Z,10.60
2022-09-25T06:21:52.985Z,11.40
2022-09-25T06:24:39.726Z,10.90
2022-09-25T06:27:26.626Z,8.10
2022-09-25T06:30:13.388Z,9.27
2022-09-25T06:33:09.511Z,8.17
2022-09-25T06:35:56.179Z,9.87
2022-09-25T06:38:42.579Z,9.57
2022-09-25T06:41:29.408Z,8.73
2022-09-25T06:44:15.597Z,8.60
2022-09-25T06:47:01.974Z,7.50
2022-09-25T06:49:48.291Z,6.87
2022-09-25T06:52:42.127Z,9.27
2022-09-25T06:55:32.223Z,8.37
2022-09-25T06:58:20.903Z,9.93
2022-09-25T07:01:10.418Z,8.47
2022-09-25T07:03:56.970Z,8.73
2022-09-25T07:06:44.058Z,10.43
2022-09-25T07:09:30.343Z,8.67
2022-09-25T07:12:18.443Z,7.63
2022-09-25T07:15:05.505Z,11.97
2022-09-25T07:17:51.938Z,9.93
2022-09-25T07:20:38.246Z,10.03
2022-09-25T07:23:24.366Z,8.50
2022-09-25T07:26:22.228Z,9.87
2022-09-25T07:29:08.733Z,10.50
2022-09-25T07:31:54.929Z,11.07
2022-09-25T07:34:42.494Z,12.27
2022-09-25T07:37:29.221Z,11.53
2022-09-25T07:40:15.821Z,11.00
2022-09-25T07:43:03.633Z,9.83
2022-09-25T07:45:53.907Z,11.57
2022-09-25T07:48:40.374Z,9.53
2022-09-25T07:51:26.683Z,9.53
2022-09-25T07:54:13.017Z,10.17
2022-09-25T07:56:59.514Z,10.43
2022-09-25T07:59:47.105Z,11.70
2022-09-25T08:02:35.187Z,10.53
2022-09-25T08:05:21.514Z,9.73
2022-09-25T08:08:07.712Z,10.13
2022-09-25T08:10:55.961Z,10.50
2022-09-25T08:13:43.627Z,13.27
2022-09-25T08:16:29.985Z,11.37
2022-09-25T08:19:18.302Z,11.03
2022-09-25T08:22:04.758Z,12.60
2022-09-25T08:24:51.454Z,11.10
2022-09-25T08:27:40.939Z,12.93
2022-09-25T08:30:27.205Z,13.00
2022-09-25T08:33:15.655Z,11.67
2022-09-25T08:36:04.323Z,14.80
2022-09-25T08:38:58.923Z,10.80
2022-09-25T08:41:51.694Z,14.70
2022-09-25T08:45:02.497Z,13.80
2022-09-25T08:48:12.091Z,12.67
2022-09-25T08:50:58.422Z,14.63
2022-09-25T08:53:46.170Z,10.90
2022-09-25T08:56:35.616Z,11.77
2022-09-25T08:59:34.401Z,13.40
2022-09-25T09:02:24.422Z,14.13
2022-09-25T09:05:37.325Z,12.23
2022-09-25T09:08:28.308Z,14.73
2022-09-25T09:11:32.740Z,15.73
2022-09-25T09:14:21.247Z,15.13
2022-09-25T09:17:15.649Z,15.53
2022-09-25T09:20:15.530Z,15.67
2022-09-25T09:23:02.274Z,12.80
2022-09-25T09:26:15.973Z,14.63
2022-09-25T09:29:39.778Z,16.50
2022-09-25T09:32:51.342Z,14.13
2022-09-25T09:35:53.526Z,15.60
2022-09-25T09:38:57.040Z,14.80
2022-09-25T09:42:22.152Z,13.83
2022-09-25T09:45:28.203Z,15.07
2022-09-25T09:48:25.030Z,17.17
2022-09-25T09:51:18.306Z,15.30
2022-09-25T09:54:23.230Z,12.80
2022-09-25T09:57:21.065Z,14.17
2022-09-25T10:00:15.220Z,10.77
2022-09-25T10:03:10.460Z,11.63
2022-09-25T10:06:04.555Z,13.73
2022-09-25T10:08:51.099Z,14.80
2022-09-25T10:11:39.698Z,10.87
2022-09-25T10:14:34.010Z,14.97
2022-09-25T10:17:23.473Z,12.40
2022-09-25T10:20:19.399Z,18.13
2022-09-25T10:23:06.521Z,12.90
2022-09-25T10:25:56.038Z,12.03
2022-09-25T10:28:43.950Z,12.70
2022-09-25T10:31:34.234Z,13.83
2022-09-25T10:34:24.001Z,12.70
2022-09-25T10:37:21.696Z,14.40
2022-09-25T10:40:35.060Z,11.87
2022-09-25T10:43:23.995Z,14.30
2022-09-25T10:46:15.583Z,13.93
2022-09-25T10:49:42.799Z,14.23
2022-09-25T10:52:29.220Z,13.33
2022-09-25T10:55:25.477Z,15.30
2022-09-25T10:58:11.751Z,15.33
2022-09-25T11:01:01.296Z,16.13
2022-09-25T11:03:56.944Z,13.77
2022-09-25T11:06:52.257Z,13.40
2022-09-25T11:09:44.586Z,12.70
2022-09-25T11:12:32.502Z,14.53
2022-09-25T11:15:21.481Z,10.60
2022-09-25T11:18:38.950Z,9.73
2022-09-25T11:22:01.046Z,9.37
2022-09-25T11:25:11.634Z,12.37
2022-09-25T11:28:02.756Z,8.03
2022-09-25T11:31:25.794Z,11.07
2022-09-25T11:34:36.183Z,7.10
2022-09-25T11:37:35.265Z,5.50
2022-09-25T11:41:07.498Z,5.73
2022-09-25T11:44:12.514Z,5.93
2022-09-25T11:47:25.078Z,7.33
2022-09-25T11:50:15.920Z,5.67
2022-09-25T11:53:28.225Z,5.37
2022-09-25T11:56:33.392Z,5.30
2022-09-25T12:00:03.641Z,5.37
2022-09-25T12:03:09.438Z,5.00
2022-09-25T12:06:01.373Z,5.17
2022-09-25T12:09:13.573Z,6.60
2022-09-25T12:12:02.656Z,4.90
2022-09-25T12:15:10.846Z,5.07
2022-09-25T12:18:03.351Z,6.33
2022-09-25T12:20:57.918Z,4.90
2022-09-25T12:23:55.973Z,6.10
2022-09-25T12:27:04.136Z,5.43
2022-09-25T12:29:50.480Z,5.67
2022-09-25T12:33:00.015Z,4.60
2022-09-25T12:36:03.346Z,6.00
2022-09-25T12:38:57.570Z,4.97
2022-09-25T12:41:54.206Z,5.37
2022-09-25T12:44:47.343Z,6.47
2022-09-25T12:47:42.032Z,16.37
2022-09-25T12:50:37.263Z,6.13
2022-09-25T12:53:35.731Z,7.47
2022-09-25T12:56:51.934Z,8.37
2022-09-25T12:59:46.859Z,8.53
2022-09-25T13:02:45.152Z,6.90
2022-09-25T13:05:40.170Z,7.57
2022-09-25T13:08:34.212Z,7.80
2022-09-25T13:11:36.287Z,4.90
2022-09-25T13:14:31.920Z,6.03
2022-09-25T13:17:18.403Z,5.13
2022-09-25T13:20:26.724Z,6.63
2022-09-25T13:23:40.555Z,6.17
2022-09-25T13:26:27.818Z,6.10
2022-09-25T13:29:38.794Z,7.63
2022-09-25T13:32:38.558Z,6.17
2022-09-25T13:35:26.462Z,4.73
2022-09-25T13:38:38.253Z,4.70
2022-09-25T13:41:25.668Z,2.73
2022-09-25T13:44:42.307Z,2.17
2022-09-25T13:47:32.297Z,2.83
2022-09-25T13:50:19.959Z,2.40
2022-09-25T13:53:18.847Z,4.47
2022-09-25T13:56:12.844Z,3.80
2022-09-25T13:59:17.839Z,5.07
2022-09-25T14:02:37.014Z,5.07
2022-09-25T14:05:27.193Z,3.53
2022-09-25T14:08:16.245Z,5.50
2022-09-25T14:11:05.481Z,5.37
2022-09-25T14:13:56.810Z,3.53
2022-09-25T14:16:50.935Z,5.60
2022-09-25T14:19:42.537Z,3.07
2022-09-25T14:22:58.765Z,3.27
2022-09-25T14:25:46.839Z,4.17
2022-09-25T14:28:45.070Z,3.17
2022-09-25T14:31:40.368Z,4.23
2022-09-25T14:34:37.831Z,3.73
2022-09-25T14:37:44.826Z,3.87
2022-09-25T14:40:52.649Z,4.57
2022-09-25T14:43:50.703Z,2.87
2022-09-25T14:46:37.449Z,2.30
2022-09-25T14:49:37.715Z,3.10
2022-09-25T14:52:29.788Z,2.43
2022-09-25T14:55:21.172Z,2.77
2022-09-25T14:58:09.646Z,2.20
2022-09-25T15:01:10.532Z,1.60
2022-09-25T15:04:01.999Z,1.90
2022-09-25T15:07:17.781Z,1.60
2022-09-25T15:10:26.684Z,1.50
2022-09-25T15:13:22.252Z,1.57
2022-09-25T15:16:36.403Z,2.43
2022-09-25T15:19:28.023Z,6.40
2022-09-25T15:22:22.333Z,8.37
2022-09-25T15:25:14.931Z,3.03
2022-09-25T15:28:13.265Z,2.17
2022-09-25T15:31:37.805Z,3.80
2022-09-25T15:34:37.832Z,2.57
2022-09-25T15:41:49.746Z,2.00
2022-09-25T15:44:43.122Z,3.10
2022-09-25T15:47:35.673Z,2.37
2022-09-25T15:50:25.433Z,3.20
2022-09-25T15:53:27.975Z,4.50
2022-09-25T15:57:08.312Z,2.80
2022-09-25T16:00:15.334Z,2.70
2022-09-25T16:03:29.695Z,3.10
2022-09-25T16:06:17.151Z,2.50
2022-09-25T16:09:33.820Z,1.80
2022-09-25T16:12:26.647Z,3.40
2022-09-25T16:15:42.125Z,3.03
2022-09-25T16:18:40.327Z,4.53
2022-09-25T16:21:39.406Z,3.40
2022-09-25T16:24:29.972Z,3.27
2022-09-25T16:27:25.821Z,4.93
2022-09-25T16:30:22.274Z,4.07
2022-09-25T16:33:23.265Z,4.57
2022-09-25T16:36:18.145Z,6.77
2022-09-25T16:39:07.798Z,6.93
2022-09-25T16:41:54.316Z,6.23
2022-09-25T16:44:47.233Z,6.50
2022-09-25T16:47:34.973Z,6.03
2022-09-25T16:50:22.119Z,7.07
2022-09-25T16:53:08.830Z,7.87
2022-09-25T16:55:55.054Z,9.53
2022-09-25T16:58:41.865Z,8.03
2022-09-25T17:01:29.170Z,6.80
2022-09-25T17:04:16.215Z,7.47
2022-09-25T17:07:02.430Z,8.97
2022-09-25T17:09:48.815Z,8.67
2022-09-25T17:12:35.155Z,9.60
2022-09-25T17:15:29.364Z,9.30
2022-09-25T17:18:21.211Z,10.40
2022-09-25T17:21:13.219Z,13.30
2022-09-25T17:23:59.503Z,9.97
2022-09-25T17:26:46.680Z,17.40
2022-09-25T17:29:35.950Z,10.67
2022-09-25T17:32:22.501Z,12.10
2022-09-25T17:35:27.470Z,13.00
2022-09-25T17:38:13.841Z,11.87
2022-09-25T17:41:15.463Z,13.00
2022-09-25T17:44:03.514Z,11.37
2022-09-25T17:46:52.127Z,12.57
2022-09-25T17:49:38.434Z,11.50
2022-09-25T17:52:24.883Z,9.63
2022-09-25T17:55:17.226Z,10.23
2022-09-25T17:58:06.482Z,11.93
2022-09-25T18:00:54.439Z,15.40
2022-09-25T18:03:41.094Z,9.40
2022-09-25T18:06:29.921Z,10.17
2022-09-25T18:09:20.293Z,10.27
2022-09-25T18:12:14.447Z,9.47
2022-09-25T18:15:01.093Z,13.97
2022-09-25T18:17:48.111Z,8.33
2022-09-25T18:20:57.505Z,10.30
2022-09-25T18:23:45.779Z,11.20
2022-09-25T18:26:32.364Z,9.03
2022-09-25T18:29:19.488Z,10.77
2022-09-25T18:32:05.894Z,12.13
2022-09-25T18:34:52.753Z,10.37
2022-09-25T18:37:38.819Z,10.63
2022-09-25T18:40:25.145Z,10.83
2022-09-25T18:43:11.968Z,8.23
2022-09-25T18:45:58.433Z,9.53
2022-09-25T18:48:47.853Z,9.67
2022-09-25T18:51:35.088Z,9.13
2022-09-25T18:54:22.733Z,8.83
2022-09-25T18:57:10.867Z,8.63
2022-09-25T18:59:57.567Z,12.47
2022-09-25T19:02:44.216Z,8.53
2022-09-25T19:05:31.461Z,9.43
2022-09-25T19:08:18.114Z,15.80
2022-09-25T19:11:12.149Z,9.57
2022-09-25T19:13:59.054Z,11.20
2022-09-25T19:16:47.274Z,8.00
2022-09-25T19:19:35.029Z,11.20
2022-09-25T19:22:21.778Z,8.03
2022-09-25T19:25:08.410Z,8.73
2022-09-25T19:27:55.068Z,9.67
2022-09-25T19:30:41.550Z,9.60
2022-09-25T19:33:34.397Z,11.53
2022-09-25T19:36:25.472Z,5.90
2022-09-25T19:39:12.016Z,9.57
2022-09-25T19:41:58.549Z,10.57
2022-09-25T19:44:47.128Z,7.90
2022-09-25T19:47:33.792Z,8.97
2022-09-25T19:50:21.412Z,11.47
2022-09-25T19:53:07.647Z,8.90
2022-09-25T19:55:54.714Z,7.13
2022-09-25T19:58:41.923Z,9.63
2022-09-25T20:01:32.531Z,9.80
2022-09-25T20:04:23.239Z,10.03
2022-09-25T20:10:17.734Z,9.20
2022-09-25T20:13:06.102Z,11.90
2022-09-25T20:15:54.827Z,11.03
2022-09-25T20:18:42.236Z,7.17
2022-09-25T20:21:35.199Z,10.17
2022-09-25T20:24:22.758Z,7.47
2022-09-25T20:27:09.341Z,7.30
2022-09-25T20:29:55.749Z,10.63
2022-09-25T20:32:42.753Z,10.53
2022-09-25T20:35:29.429Z,12.23
2022-09-25T20:38:16.879Z,9.00
2022-09-25T20:41:05.617Z,6.93
2022-09-25T20:43:53.832Z,7.23
2022-09-25T20:46:41.874Z,7.30
2022-09-25T20:49:28.829Z,7.87
2022-09-25T20:52:15.502Z,8.07
2022-09-25T20:55:02.047Z,7.37
2022-09-25T20:57:48.258Z,12.57
2022-09-25T21:00:35.067Z,13.60
2022-09-25T21:03:21.408Z,11.40
2022-09-25T21:06:31.123Z,7.67
2022-09-25T21:09:23.932Z,11.80
2022-09-25T21:12:10.326Z,7.77
2022-09-25T21:14:56.334Z,7.77
2022-09-25T21:17:42.545Z,7.23
2022-09-25T21:20:28.956Z,6.40
2022-09-25T21:23:15.114Z,8.50
2022-09-25T21:26:09.983Z,6.40
2022-09-25T21:28:59.049Z,7.63
2022-09-25T21:31:49.941Z,13.03
2022-09-25T21:34:37.196Z,5.97
2022-09-25T21:37:23.530Z,7.47
2022-09-25T21:40:09.794Z,6.90
2022-09-25T21:42:56.404Z,11.07
2022-09-25T21:45:43.091Z,12.53
2022-09-25T21:48:29.975Z,7.10
2022-09-25T21:51:18.158Z,5.47
2022-09-25T21:54:07.418Z,8.30
2022-09-25T21:56:53.750Z,9.10
2022-09-25T21:59:41.416Z,5.83
2022-09-25T22:02:31.160Z,8.70
2022-09-25T22:05:17.487Z,5.77
2022-09-25T22:08:06.232Z,7.40
2022-09-25T22:10:57.890Z,10.77
2022-09-25T22:13:46.076Z,7.30
2022-09-25T22:16:35.924Z,6.60
2022-09-25T22:19:28.077Z,6.83
2022-09-25T22:22:14.619Z,7.10
2022-09-25T22:25:00.851Z,7.10
2022-09-25T22:27:47.099Z,8.30
2022-09-25T22:30:35.826Z,7.77
2022-09-25T22:33:22.373Z,7.63
2022-09-25T22:36:10.074Z,8.13
2022-09-25T22:38:56.482Z,8.10
2022-09-25T22:41:43.300Z,6.20
2022-09-25T22:44:29.910Z,9.33
2022-09-25T22:47:16.169Z,5.73
2022-09-25T22:50:02.998Z,5.70
2022-09-25T22:52:49.751Z,7.63
2022-09-25T22:55:35.925Z,6.50
2022-09-25T22:58:22.525Z,6.37
2022-09-25T23:01:15.307Z,6.10
2022-09-25T23:04:04.570Z,7.40
2022-09-25T23:06:51.282Z,6.47
2022-09-25T23:09:38.080Z,8.83
2022-09-25T23:12:29.058Z,7.97
2022-09-25T23:15:16.779Z,6.53
2022-09-25T23:18:02.895Z,8.40
2022-09-25T23:20:57.518Z,8.50
2022-09-25T23:23:43.916Z,9.20
2022-09-25T23:26:30.314Z,10.17
2022-09-25T23:29:19.037Z,5.90
2022-09-25T23:32:08.040Z,9.53
2022-09-25T23:34:54.590Z,9.43
2022-09-25T23:37:41.091Z,12.40
2022-09-25T23:40:27.314Z,7.13
2022-09-25T23:43:15.234Z,7.33
2022-09-25T23:46:01.618Z,9.17
2022-09-25T23:48:48.426Z,7.73
2022-09-25T23:51:35.382Z,7.17
2022-09-25T23:54:21.982Z,6.97
2022-09-25T23:57:08.079Z,9.17
2022-09-25T23:59:54.302Z,9.27
